sensor_id;sensor_type;location;lat;lon;timestamp;P1;durP1;ratioP1;P2;durP2;ratioP2
52043;SDS011;38053;53.100;6.078;2023-01-19T00:00:08;4.93;;;1.60;;
52043;SDS011;38053;53.100;6.078;2023-01-19T00:02:35;4.15;;;1.05;;
52043;SDS011;38053;53.100;6.078;2023-01-19T00:05:01;16.23;;;2.92;;
52043;SDS011;38053;53.100;6.078;2023-01-19T00:07:31;13.20;;;1.30;;
52043;SDS011;38053;53.100;6.078;2023-01-19T00:09:57;3.70;;;0.95;;
52043;SDS011;38053;53.100;6.078;2023-01-19T00:12:23;7.97;;;0.98;;
52043;SDS011;38053;53.100;6.078;2023-01-19T00:14:50;5.65;;;1.35;;
52043;SDS011;38053;53.100;6.078;2023-01-19T00:17:15;8.30;;;1.00;;
52043;SDS011;38053;53.100;6.078;2023-01-19T00:19:41;8.15;;;1.00;;
52043;SDS011;38053;53.100;6.078;2023-01-19T00:22:07;15.40;;;1.63;;
52043;SDS011;38053;53.100;6.078;2023-01-19T00:24:32;6.00;;;1.20;;
52043;SDS011;38053;53.100;6.078;2023-01-19T00:26:58;16.50;;;1.70;;
52043;SDS011;38053;53.100;6.078;2023-01-19T00:29:27;6.93;;;2.00;;
52043;SDS011;38053;53.100;6.078;2023-01-19T00:31:57;16.10;;;2.37;;
52043;SDS011;38053;53.100;6.078;2023-01-19T00:34:24;9.20;;;1.40;;
52043;SDS011;38053;53.100;6.078;2023-01-19T00:36:50;11.98;;;1.10;;
52043;SDS011;38053;53.100;6.078;2023-01-19T00:39:16;10.68;;;1.30;;
52043;SDS011;38053;53.100;6.078;2023-01-19T00:41:41;12.00;;;1.02;;
52043;SDS011;38053;53.100;6.078;2023-01-19T00:44:25;6.90;;;1.75;;
52043;SDS011;38053;53.100;6.078;2023-01-19T00:46:51;7.03;;;1.33;;
52043;SDS011;38053;53.100;6.078;2023-01-19T00:49:17;10.68;;;1.60;;
52043;SDS011;38053;53.100;6.078;2023-01-19T00:51:42;9.48;;;1.85;;
52043;SDS011;38053;53.100;6.078;2023-01-19T00:54:08;6.45;;;1.48;;
52043;SDS011;38053;53.100;6.078;2023-01-19T00:56:34;15.07;;;1.65;;
52043;SDS011;38053;53.100;6.078;2023-01-19T00:59:00;2.90;;;1.38;;
52043;SDS011;38053;53.100;6.078;2023-01-19T01:01:26;13.70;;;2.05;;
52043;SDS011;38053;53.100;6.078;2023-01-19T01:03:52;11.10;;;2.15;;
52043;SDS011;38053;53.100;6.078;2023-01-19T01:06:18;10.52;;;1.35;;
52043;SDS011;38053;53.100;6.078;2023-01-19T01:08:44;16.75;;;2.05;;
52043;SDS011;38053;53.100;6.078;2023-01-19T01:11:10;11.55;;;2.25;;
52043;SDS011;38053;53.100;6.078;2023-01-19T01:13:35;10.70;;;2.45;;
52043;SDS011;38053;53.100;6.078;2023-01-19T01:16:01;16.25;;;2.13;;
52043;SDS011;38053;53.100;6.078;2023-01-19T01:18:27;8.52;;;1.95;;
52043;SDS011;38053;53.100;6.078;2023-01-19T01:20:59;11.32;;;1.50;;
52043;SDS011;38053;53.100;6.078;2023-01-19T01:23:29;17.08;;;4.72;;
52043;SDS011;38053;53.100;6.078;2023-01-19T01:25:55;11.85;;;1.55;;
52043;SDS011;38053;53.100;6.078;2023-01-19T01:28:20;10.98;;;1.33;;
52043;SDS011;38053;53.100;6.078;2023-01-19T01:30:46;12.98;;;1.15;;
52043;SDS011;38053;53.100;6.078;2023-01-19T01:33:12;10.15;;;1.60;;
52043;SDS011;38053;53.100;6.078;2023-01-19T01:35:38;8.65;;;1.58;;
52043;SDS011;38053;53.100;6.078;2023-01-19T01:38:04;7.63;;;1.27;;
52043;SDS011;38053;53.100;6.078;2023-01-19T01:40:30;7.32;;;2.47;;
52043;SDS011;38053;53.100;6.078;2023-01-19T01:42:56;10.88;;;1.17;;
52043;SDS011;38053;53.100;6.078;2023-01-19T01:45:24;11.57;;;2.00;;
52043;SDS011;38053;53.100;6.078;2023-01-19T01:48:15;8.25;;;1.67;;
52043;SDS011;38053;53.100;6.078;2023-01-19T01:53:36;7.20;;;1.20;;
52043;SDS011;38053;53.100;6.078;2023-01-19T01:56:04;7.45;;;1.10;;
52043;SDS011;38053;53.100;6.078;2023-01-19T01:58:34;11.63;;;2.30;;
52043;SDS011;38053;53.100;6.078;2023-01-19T02:01:02;15.55;;;1.75;;
52043;SDS011;38053;53.100;6.078;2023-01-19T02:03:47;9.50;;;1.45;;
52043;SDS011;38053;53.100;6.078;2023-01-19T02:06:14;16.30;;;2.33;;
52043;SDS011;38053;53.100;6.078;2023-01-19T02:08:41;11.20;;;1.30;;
52043;SDS011;38053;53.100;6.078;2023-01-19T02:11:30;11.23;;;1.63;;
52043;SDS011;38053;53.100;6.078;2023-01-19T02:14:16;8.70;;;1.25;;
52043;SDS011;38053;53.100;6.078;2023-01-19T02:16:43;6.45;;;1.13;;
52043;SDS011;38053;53.100;6.078;2023-01-19T02:19:11;7.15;;;1.10;;
52043;SDS011;38053;53.100;6.078;2023-01-19T02:21:44;5.07;;;0.95;;
52043;SDS011;38053;53.100;6.078;2023-01-19T02:24:17;15.43;;;1.30;;
52043;SDS011;38053;53.100;6.078;2023-01-19T02:26:44;6.65;;;1.30;;
52043;SDS011;38053;53.100;6.078;2023-01-19T02:29:15;4.80;;;1.00;;
52043;SDS011;38053;53.100;6.078;2023-01-19T02:31:43;5.85;;;1.92;;
52043;SDS011;38053;53.100;6.078;2023-01-19T02:34:10;4.97;;;0.80;;
52043;SDS011;38053;53.100;6.078;2023-01-19T02:36:53;3.05;;;0.88;;
52043;SDS011;38053;53.100;6.078;2023-01-19T02:39:32;5.05;;;1.05;;
52043;SDS011;38053;53.100;6.078;2023-01-19T02:42:03;11.93;;;1.52;;
52043;SDS011;38053;53.100;6.078;2023-01-19T02:44:33;6.63;;;1.17;;
52043;SDS011;38053;53.100;6.078;2023-01-19T02:47:01;9.32;;;1.20;;
52043;SDS011;38053;53.100;6.078;2023-01-19T02:49:27;4.00;;;0.85;;
52043;SDS011;38053;53.100;6.078;2023-01-19T02:51:54;5.07;;;0.73;;
52043;SDS011;38053;53.100;6.078;2023-01-19T02:57:25;9.75;;;2.15;;
52043;SDS011;38053;53.100;6.078;2023-01-19T03:02:38;6.15;;;0.80;;
52043;SDS011;38053;53.100;6.078;2023-01-19T03:16:27;3.03;;;0.80;;
52043;SDS011;38053;53.100;6.078;2023-01-19T03:21:50;4.75;;;0.70;;
52043;SDS011;38053;53.100;6.078;2023-01-19T03:24:23;4.20;;;1.02;;
52043;SDS011;38053;53.100;6.078;2023-01-19T03:26:51;9.23;;;1.35;;
52043;SDS011;38053;53.100;6.078;2023-01-19T03:29:21;24.88;;;3.85;;
52043;SDS011;38053;53.100;6.078;2023-01-19T03:31:51;7.35;;;0.73;;
52043;SDS011;38053;53.100;6.078;2023-01-19T03:34:19;4.60;;;1.00;;
52043;SDS011;38053;53.100;6.078;2023-01-19T03:36:49;10.45;;;1.15;;
52043;SDS011;38053;53.100;6.078;2023-01-19T03:39:21;8.85;;;1.25;;
52043;SDS011;38053;53.100;6.078;2023-01-19T03:44:16;6.82;;;0.98;;
52043;SDS011;38053;53.100;6.078;2023-01-19T03:46:43;9.30;;;1.40;;
52043;SDS011;38053;53.100;6.078;2023-01-19T03:49:10;7.53;;;1.00;;
52043;SDS011;38053;53.100;6.078;2023-01-19T03:51:36;7.85;;;1.40;;
52043;SDS011;38053;53.100;6.078;2023-01-19T03:54:04;10.13;;;1.23;;
52043;SDS011;38053;53.100;6.078;2023-01-19T03:56:31;11.07;;;1.85;;
52043;SDS011;38053;53.100;6.078;2023-01-19T03:58:57;11.70;;;1.60;;
52043;SDS011;38053;53.100;6.078;2023-01-19T04:01:23;10.45;;;2.38;;
52043;SDS011;38053;53.100;6.078;2023-01-19T04:03:50;13.68;;;1.60;;
52043;SDS011;38053;53.100;6.078;2023-01-19T04:06:16;12.52;;;2.20;;
52043;SDS011;38053;53.100;6.078;2023-01-19T04:08:44;15.40;;;2.15;;
52043;SDS011;38053;53.100;6.078;2023-01-19T04:11:11;15.63;;;1.92;;
52043;SDS011;38053;53.100;6.078;2023-01-19T04:13:37;15.73;;;3.65;;
52043;SDS011;38053;53.100;6.078;2023-01-19T04:16:03;15.35;;;2.10;;
52043;SDS011;38053;53.100;6.078;2023-01-19T04:18:30;8.98;;;1.40;;
52043;SDS011;38053;53.100;6.078;2023-01-19T04:21:01;7.03;;;1.50;;
52043;SDS011;38053;53.100;6.078;2023-01-19T04:25:57;10.52;;;1.63;;
52043;SDS011;38053;53.100;6.078;2023-01-19T04:28:24;9.85;;;1.33;;
52043;SDS011;38053;53.100;6.078;2023-01-19T04:30:49;15.50;;;1.45;;
52043;SDS011;38053;53.100;6.078;2023-01-19T04:33:16;15.43;;;2.10;;
52043;SDS011;38053;53.100;6.078;2023-01-19T04:35:46;8.43;;;1.58;;
52043;SDS011;38053;53.100;6.078;2023-01-19T04:38:12;16.30;;;1.83;;
52043;SDS011;38053;53.100;6.078;2023-01-19T04:40:38;12.38;;;2.00;;
52043;SDS011;38053;53.100;6.078;2023-01-19T04:43:04;13.50;;;1.70;;
52043;SDS011;38053;53.100;6.078;2023-01-19T04:45:31;11.23;;;2.08;;
52043;SDS011;38053;53.100;6.078;2023-01-19T04:47:57;8.88;;;1.48;;
52043;SDS011;38053;53.100;6.078;2023-01-19T04:50:22;5.28;;;0.90;;
52043;SDS011;38053;53.100;6.078;2023-01-19T04:52:49;16.48;;;1.60;;
52043;SDS011;38053;53.100;6.078;2023-01-19T04:55:15;10.70;;;1.23;;
52043;SDS011;38053;53.100;6.078;2023-01-19T04:57:41;6.82;;;1.20;;
52043;SDS011;38053;53.100;6.078;2023-01-19T05:00:09;8.25;;;1.33;;
52043;SDS011;38053;53.100;6.078;2023-01-19T05:02:35;9.48;;;1.20;;
52043;SDS011;38053;53.100;6.078;2023-01-19T05:05:01;4.60;;;0.75;;
52043;SDS011;38053;53.100;6.078;2023-01-19T05:07:27;9.02;;;0.82;;
52043;SDS011;38053;53.100;6.078;2023-01-19T05:09:53;7.55;;;1.50;;
52043;SDS011;38053;53.100;6.078;2023-01-19T05:12:19;11.18;;;1.77;;
52043;SDS011;38053;53.100;6.078;2023-01-19T05:14:45;8.40;;;1.52;;
52043;SDS011;38053;53.100;6.078;2023-01-19T05:17:11;5.07;;;1.40;;
52043;SDS011;38053;53.100;6.078;2023-01-19T05:19:37;7.10;;;1.20;;
52043;SDS011;38053;53.100;6.078;2023-01-19T05:22:03;9.70;;;1.70;;
52043;SDS011;38053;53.100;6.078;2023-01-19T05:24:30;11.10;;;1.40;;
52043;SDS011;38053;53.100;6.078;2023-01-19T05:26:56;15.20;;;2.25;;
52043;SDS011;38053;53.100;6.078;2023-01-19T05:29:21;13.10;;;1.95;;
52043;SDS011;38053;53.100;6.078;2023-01-19T05:31:47;8.65;;;1.92;;
52043;SDS011;38053;53.100;6.078;2023-01-19T05:34:13;14.27;;;2.38;;
52043;SDS011;38053;53.100;6.078;2023-01-19T05:36:39;13.57;;;1.95;;
52043;SDS011;38053;53.100;6.078;2023-01-19T05:39:06;18.83;;;2.50;;
52043;SDS011;38053;53.100;6.078;2023-01-19T05:41:32;6.40;;;1.77;;
52043;SDS011;38053;53.100;6.078;2023-01-19T05:43:57;13.45;;;2.88;;
52043;SDS011;38053;53.100;6.078;2023-01-19T05:46:23;16.05;;;1.83;;
52043;SDS011;38053;53.100;6.078;2023-01-19T05:48:49;11.82;;;1.45;;
52043;SDS011;38053;53.100;6.078;2023-01-19T05:51:15;13.60;;;2.15;;
52043;SDS011;38053;53.100;6.078;2023-01-19T05:53:41;11.43;;;1.77;;
52043;SDS011;38053;53.100;6.078;2023-01-19T05:56:07;14.75;;;1.50;;
52043;SDS011;38053;53.100;6.078;2023-01-19T05:58:34;16.75;;;2.00;;
52043;SDS011;38053;53.100;6.078;2023-01-19T06:01:06;12.27;;;1.60;;
52043;SDS011;38053;53.100;6.078;2023-01-19T06:03:34;10.77;;;1.48;;
52043;SDS011;38053;53.100;6.078;2023-01-19T06:06:01;8.65;;;2.22;;
52043;SDS011;38053;53.100;6.078;2023-01-19T06:08:27;14.02;;;2.67;;
52043;SDS011;38053;53.100;6.078;2023-01-19T06:10:53;11.70;;;1.77;;
52043;SDS011;38053;53.100;6.078;2023-01-19T06:13:19;14.48;;;2.05;;
52043;SDS011;38053;53.100;6.078;2023-01-19T06:15:45;15.30;;;1.98;;
52043;SDS011;38053;53.100;6.078;2023-01-19T06:18:11;9.88;;;1.88;;
52043;SDS011;38053;53.100;6.078;2023-01-19T06:20:38;11.23;;;2.30;;
52043;SDS011;38053;53.100;6.078;2023-01-19T06:23:04;14.13;;;2.53;;
52043;SDS011;38053;53.100;6.078;2023-01-19T06:25:30;8.52;;;1.77;;
52043;SDS011;38053;53.100;6.078;2023-01-19T06:27:56;25.38;;;2.55;;
52043;SDS011;38053;53.100;6.078;2023-01-19T06:30:21;20.48;;;3.67;;
52043;SDS011;38053;53.100;6.078;2023-01-19T06:32:47;16.50;;;3.65;;
52043;SDS011;38053;53.100;6.078;2023-01-19T06:35:13;20.52;;;3.55;;
52043;SDS011;38053;53.100;6.078;2023-01-19T06:37:39;17.52;;;3.35;;
52043;SDS011;38053;53.100;6.078;2023-01-19T06:40:05;14.95;;;2.10;;
52043;SDS011;38053;53.100;6.078;2023-01-19T06:42:32;20.98;;;2.65;;
52043;SDS011;38053;53.100;6.078;2023-01-19T06:44:58;24.63;;;3.85;;
52043;SDS011;38053;53.100;6.078;2023-01-19T06:47:24;13.63;;;2.97;;
52043;SDS011;38053;53.100;6.078;2023-01-19T06:49:49;13.25;;;1.77;;
52043;SDS011;38053;53.100;6.078;2023-01-19T06:52:15;13.95;;;2.08;;
52043;SDS011;38053;53.100;6.078;2023-01-19T06:54:43;17.00;;;2.05;;
52043;SDS011;38053;53.100;6.078;2023-01-19T06:57:09;17.92;;;2.75;;
52043;SDS011;38053;53.100;6.078;2023-01-19T06:59:36;13.63;;;2.17;;
52043;SDS011;38053;53.100;6.078;2023-01-19T07:02:02;15.07;;;2.22;;
52043;SDS011;38053;53.100;6.078;2023-01-19T07:04:28;30.30;;;4.13;;
52043;SDS011;38053;53.100;6.078;2023-01-19T07:06:54;16.95;;;2.63;;
52043;SDS011;38053;53.100;6.078;2023-01-19T07:09:19;16.30;;;3.13;;
52043;SDS011;38053;53.100;6.078;2023-01-19T07:11:45;20.50;;;3.40;;
52043;SDS011;38053;53.100;6.078;2023-01-19T07:14:12;19.98;;;2.40;;
52043;SDS011;38053;53.100;6.078;2023-01-19T07:16:38;19.52;;;2.42;;
52043;SDS011;38053;53.100;6.078;2023-01-19T07:19:04;17.20;;;2.40;;
52043;SDS011;38053;53.100;6.078;2023-01-19T07:21:30;26.75;;;2.90;;
52043;SDS011;38053;53.100;6.078;2023-01-19T07:23:55;16.63;;;3.92;;
52043;SDS011;38053;53.100;6.078;2023-01-19T07:26:21;16.55;;;3.30;;
52043;SDS011;38053;53.100;6.078;2023-01-19T07:28:50;22.35;;;2.80;;
52043;SDS011;38053;53.100;6.078;2023-01-19T07:31:16;21.13;;;4.60;;
52043;SDS011;38053;53.100;6.078;2023-01-19T07:33:42;17.77;;;2.20;;
52043;SDS011;38053;53.100;6.078;2023-01-19T07:36:08;21.50;;;4.53;;
52043;SDS011;38053;53.100;6.078;2023-01-19T07:38:35;17.23;;;3.00;;
52043;SDS011;38053;53.100;6.078;2023-01-19T07:41:01;22.67;;;3.65;;
52043;SDS011;38053;53.100;6.078;2023-01-19T07:43:28;31.70;;;4.93;;
52043;SDS011;38053;53.100;6.078;2023-01-19T07:45:58;21.80;;;2.95;;
52043;SDS011;38053;53.100;6.078;2023-01-19T07:48:25;27.27;;;4.72;;
52043;SDS011;38053;53.100;6.078;2023-01-19T07:50:51;21.95;;;2.97;;
52043;SDS011;38053;53.100;6.078;2023-01-19T07:53:17;20.83;;;3.17;;
52043;SDS011;38053;53.100;6.078;2023-01-19T07:55:44;18.40;;;3.63;;
52043;SDS011;38053;53.100;6.078;2023-01-19T07:58:09;17.95;;;3.03;;
52043;SDS011;38053;53.100;6.078;2023-01-19T08:00:36;30.40;;;4.50;;
52043;SDS011;38053;53.100;6.078;2023-01-19T08:03:02;19.35;;;3.60;;
52043;SDS011;38053;53.100;6.078;2023-01-19T08:05:30;21.33;;;4.40;;
52043;SDS011;38053;53.100;6.078;2023-01-19T08:07:57;29.23;;;6.32;;
52043;SDS011;38053;53.100;6.078;2023-01-19T08:10:23;21.27;;;4.10;;
52043;SDS011;38053;53.100;6.078;2023-01-19T08:12:54;25.73;;;3.38;;
52043;SDS011;38053;53.100;6.078;2023-01-19T08:15:21;22.20;;;4.25;;
52043;SDS011;38053;53.100;6.078;2023-01-19T08:17:58;21.10;;;4.65;;
52043;SDS011;38053;53.100;6.078;2023-01-19T08:20:26;26.70;;;3.35;;
52043;SDS011;38053;53.100;6.078;2023-01-19T08:22:53;23.08;;;4.03;;
52043;SDS011;38053;53.100;6.078;2023-01-19T08:25:25;23.48;;;3.47;;
52043;SDS011;38053;53.100;6.078;2023-01-19T08:27:56;20.00;;;2.75;;
52043;SDS011;38053;53.100;6.078;2023-01-19T08:30:22;25.45;;;3.15;;
52043;SDS011;38053;53.100;6.078;2023-01-19T08:32:51;26.38;;;3.90;;
52043;SDS011;38053;53.100;6.078;2023-01-19T08:35:18;23.27;;;4.25;;
52043;SDS011;38053;53.100;6.078;2023-01-19T08:37:44;22.63;;;3.25;;
52043;SDS011;38053;53.100;6.078;2023-01-19T08:40:10;33.15;;;3.90;;
52043;SDS011;38053;53.100;6.078;2023-01-19T08:42:36;31.65;;;3.97;;
52043;SDS011;38053;53.100;6.078;2023-01-19T08:45:01;21.27;;;3.67;;
52043;SDS011;38053;53.100;6.078;2023-01-19T08:47:28;24.13;;;3.65;;
52043;SDS011;38053;53.100;6.078;2023-01-19T08:49:53;23.20;;;2.88;;
52043;SDS011;38053;53.100;6.078;2023-01-19T08:52:19;23.02;;;3.70;;
52043;SDS011;38053;53.100;6.078;2023-01-19T08:54:45;27.80;;;3.78;;
52043;SDS011;38053;53.100;6.078;2023-01-19T08:57:11;24.35;;;3.28;;
52043;SDS011;38053;53.100;6.078;2023-01-19T08:59:36;24.73;;;3.60;;
52043;SDS011;38053;53.100;6.078;2023-01-19T09:02:02;23.90;;;3.42;;
52043;SDS011;38053;53.100;6.078;2023-01-19T09:04:28;26.13;;;5.57;;
52043;SDS011;38053;53.100;6.078;2023-01-19T09:06:53;19.98;;;3.40;;
52043;SDS011;38053;53.100;6.078;2023-01-19T09:09:19;25.75;;;5.45;;
52043;SDS011;38053;53.100;6.078;2023-01-19T09:11:45;19.38;;;3.85;;
52043;SDS011;38053;53.100;6.078;2023-01-19T09:14:10;20.17;;;3.75;;
52043;SDS011;38053;53.100;6.078;2023-01-19T09:16:36;15.40;;;3.15;;
52043;SDS011;38053;53.100;6.078;2023-01-19T09:19:02;25.45;;;4.00;;
52043;SDS011;38053;53.100;6.078;2023-01-19T09:21:28;19.10;;;3.60;;
52043;SDS011;38053;53.100;6.078;2023-01-19T09:23:54;16.05;;;3.22;;
52043;SDS011;38053;53.100;6.078;2023-01-19T09:26:19;15.93;;;2.75;;
52043;SDS011;38053;53.100;6.078;2023-01-19T09:28:46;20.88;;;3.65;;
52043;SDS011;38053;53.100;6.078;2023-01-19T09:31:12;26.60;;;4.95;;
52043;SDS011;38053;53.100;6.078;2023-01-19T09:33:39;19.73;;;4.65;;
52043;SDS011;38053;53.100;6.078;2023-01-19T09:36:05;19.08;;;3.83;;
52043;SDS011;38053;53.100;6.078;2023-01-19T09:38:31;22.73;;;2.70;;
52043;SDS011;38053;53.100;6.078;2023-01-19T09:40:57;13.48;;;2.35;;
52043;SDS011;38053;53.100;6.078;2023-01-19T09:46:08;29.38;;;3.67;;
52043;SDS011;38053;53.100;6.078;2023-01-19T09:48:53;17.50;;;2.50;;
52043;SDS011;38053;53.100;6.078;2023-01-19T09:51:22;13.73;;;2.30;;
52043;SDS011;38053;53.100;6.078;2023-01-19T09:56:21;21.05;;;2.80;;
52043;SDS011;38053;53.100;6.078;2023-01-19T09:58:48;16.73;;;3.15;;
52043;SDS011;38053;53.100;6.078;2023-01-19T10:04:22;21.83;;;2.40;;
52043;SDS011;38053;53.100;6.078;2023-01-19T10:06:50;20.35;;;3.03;;
52043;SDS011;38053;53.100;6.078;2023-01-19T10:09:27;18.08;;;3.80;;
52043;SDS011;38053;53.100;6.078;2023-01-19T10:12:03;19.77;;;2.75;;
52043;SDS011;38053;53.100;6.078;2023-01-19T10:14:47;17.98;;;3.20;;
52043;SDS011;38053;53.100;6.078;2023-01-19T10:17:43;17.08;;;2.08;;
52043;SDS011;38053;53.100;6.078;2023-01-19T10:20:23;18.08;;;2.20;;
52043;SDS011;38053;53.100;6.078;2023-01-19T10:25:19;13.77;;;2.28;;
52043;SDS011;38053;53.100;6.078;2023-01-19T10:27:47;15.10;;;1.90;;
52043;SDS011;38053;53.100;6.078;2023-01-19T10:30:18;15.73;;;2.75;;
52043;SDS011;38053;53.100;6.078;2023-01-19T10:32:47;15.73;;;2.17;;
52043;SDS011;38053;53.100;6.078;2023-01-19T10:35:14;17.23;;;4.22;;
52043;SDS011;38053;53.100;6.078;2023-01-19T10:37:45;10.70;;;2.03;;
52043;SDS011;38053;53.100;6.078;2023-01-19T10:40:14;21.15;;;3.72;;
52043;SDS011;38053;53.100;6.078;2023-01-19T10:42:46;13.63;;;2.42;;
52043;SDS011;38053;53.100;6.078;2023-01-19T10:45:20;12.45;;;2.25;;
52043;SDS011;38053;53.100;6.078;2023-01-19T10:47:48;11.15;;;3.45;;
52043;SDS011;38053;53.100;6.078;2023-01-19T10:50:22;12.98;;;2.42;;
52043;SDS011;38053;53.100;6.078;2023-01-19T10:52:59;13.95;;;3.10;;
52043;SDS011;38053;53.100;6.078;2023-01-19T10:55:31;18.90;;;4.10;;
52043;SDS011;38053;53.100;6.078;2023-01-19T10:57:59;12.90;;;2.03;;
52043;SDS011;38053;53.100;6.078;2023-01-19T11:00:30;12.65;;;2.05;;
52043;SDS011;38053;53.100;6.078;2023-01-19T11:03:27;11.55;;;1.85;;
52043;SDS011;38053;53.100;6.078;2023-01-19T11:05:57;12.43;;;2.65;;
52043;SDS011;38053;53.100;6.078;2023-01-19T11:08:43;13.48;;;2.13;;
52043;SDS011;38053;53.100;6.078;2023-01-19T11:25:58;8.43;;;1.95;;
52043;SDS011;38053;53.100;6.078;2023-01-19T11:28:33;10.18;;;1.33;;
52043;SDS011;38053;53.100;6.078;2023-01-19T11:31:31;6.70;;;1.42;;
52043;SDS011;38053;53.100;6.078;2023-01-19T11:34:19;15.60;;;1.40;;
52043;SDS011;38053;53.100;6.078;2023-01-19T11:37:02;17.05;;;2.50;;
52043;SDS011;38053;53.100;6.078;2023-01-19T11:39:48;11.38;;;2.05;;
52043;SDS011;38053;53.100;6.078;2023-01-19T11:42:22;15.13;;;2.33;;
52043;SDS011;38053;53.100;6.078;2023-01-19T11:45:03;9.88;;;1.52;;
52043;SDS011;38053;53.100;6.078;2023-01-19T11:47:45;10.48;;;1.88;;
52043;SDS011;38053;53.100;6.078;2023-01-19T11:50:32;11.85;;;2.45;;
52043;SDS011;38053;53.100;6.078;2023-01-19T11:58:05;15.38;;;2.70;;
52043;SDS011;38053;53.100;6.078;2023-01-19T12:00:33;12.00;;;1.65;;
52043;SDS011;38053;53.100;6.078;2023-01-19T12:05:35;11.48;;;1.30;;
52043;SDS011;38053;53.100;6.078;2023-01-19T12:08:06;13.48;;;2.75;;
52043;SDS011;38053;53.100;6.078;2023-01-19T12:10:38;6.50;;;0.73;;
52043;SDS011;38053;53.100;6.078;2023-01-19T12:13:17;8.05;;;1.60;;
52043;SDS011;38053;53.100;6.078;2023-01-19T12:15:43;8.55;;;1.30;;
52043;SDS011;38053;53.100;6.078;2023-01-19T12:18:13;9.88;;;1.67;;
52043;SDS011;38053;53.100;6.078;2023-01-19T12:20:46;6.78;;;1.58;;
52043;SDS011;38053;53.100;6.078;2023-01-19T12:23:19;12.27;;;2.55;;
52043;SDS011;38053;53.100;6.078;2023-01-19T12:31:39;5.82;;;0.98;;
52043;SDS011;38053;53.100;6.078;2023-01-19T12:36:55;11.90;;;1.45;;
52043;SDS011;38053;53.100;6.078;2023-01-19T12:42:04;7.53;;;1.17;;
52043;SDS011;38053;53.100;6.078;2023-01-19T12:44:41;5.75;;;1.27;;
52043;SDS011;38053;53.100;6.078;2023-01-19T12:52:09;10.43;;;1.48;;
52043;SDS011;38053;53.100;6.078;2023-01-19T12:54:36;12.60;;;2.90;;
52043;SDS011;38053;53.100;6.078;2023-01-19T12:57:07;7.13;;;1.45;;
52043;SDS011;38053;53.100;6.078;2023-01-19T12:59:41;12.93;;;1.98;;
52043;SDS011;38053;53.100;6.078;2023-01-19T13:21:13;6.00;;;2.22;;
52043;SDS011;38053;53.100;6.078;2023-01-19T13:23:58;5.30;;;1.25;;
52043;SDS011;38053;53.100;6.078;2023-01-19T13:26:35;7.90;;;1.05;;
52043;SDS011;38053;53.100;6.078;2023-01-19T13:29:12;8.02;;;1.27;;
52043;SDS011;38053;53.100;6.078;2023-01-19T13:31:39;9.48;;;2.55;;
52043;SDS011;38053;53.100;6.078;2023-01-19T13:34:14;10.70;;;1.42;;
52043;SDS011;38053;53.100;6.078;2023-01-19T13:36:44;6.80;;;1.33;;
52043;SDS011;38053;53.100;6.078;2023-01-19T13:39:19;9.40;;;1.48;;
52043;SDS011;38053;53.100;6.078;2023-01-19T13:41:48;5.90;;;1.40;;
52043;SDS011;38053;53.100;6.078;2023-01-19T13:44:24;11.50;;;2.45;;
52043;SDS011;38053;53.100;6.078;2023-01-19T13:47:01;7.68;;;1.85;;
52043;SDS011;38053;53.100;6.078;2023-01-19T13:49:29;10.52;;;2.17;;
52043;SDS011;38053;53.100;6.078;2023-01-19T13:54:53;9.68;;;2.10;;
52043;SDS011;38053;53.100;6.078;2023-01-19T14:00:05;11.82;;;2.15;;
52043;SDS011;38053;53.100;6.078;2023-01-19T14:02:31;13.13;;;1.40;;
52043;SDS011;38053;53.100;6.078;2023-01-19T14:04:57;14.13;;;1.77;;
52043;SDS011;38053;53.100;6.078;2023-01-19T14:07:36;10.90;;;1.73;;
52043;SDS011;38053;53.100;6.078;2023-01-19T14:10:04;5.28;;;1.63;;
52043;SDS011;38053;53.100;6.078;2023-01-19T14:12:33;15.20;;;3.28;;
52043;SDS011;38053;53.100;6.078;2023-01-19T14:14:59;11.63;;;2.30;;
52043;SDS011;38053;53.100;6.078;2023-01-19T14:17:26;5.90;;;1.50;;
52043;SDS011;38053;53.100;6.078;2023-01-19T14:19:56;10.73;;;4.20;;
52043;SDS011;38053;53.100;6.078;2023-01-19T14:25:20;6.60;;;1.55;;
52043;SDS011;38053;53.100;6.078;2023-01-19T14:30:54;8.70;;;1.52;;
52043;SDS011;38053;53.100;6.078;2023-01-19T14:33:34;6.70;;;1.40;;
52043;SDS011;38053;53.100;6.078;2023-01-19T14:38:57;12.70;;;2.83;;
52043;SDS011;38053;53.100;6.078;2023-01-19T14:41:44;15.02;;;3.67;;
52043;SDS011;38053;53.100;6.078;2023-01-19T14:44:20;8.07;;;2.95;;
52043;SDS011;38053;53.100;6.078;2023-01-19T14:46:53;10.88;;;1.67;;
52043;SDS011;38053;53.100;6.078;2023-01-19T14:49:23;4.95;;;1.33;;
52043;SDS011;38053;53.100;6.078;2023-01-19T14:51:55;9.43;;;1.27;;
52043;SDS011;38053;53.100;6.078;2023-01-19T14:54:32;4.75;;;0.90;;
52043;SDS011;38053;53.100;6.078;2023-01-19T14:57:04;6.72;;;1.77;;
52043;SDS011;38053;53.100;6.078;2023-01-19T14:59:34;7.10;;;1.13;;
52043;SDS011;38053;53.100;6.078;2023-01-19T15:02:00;11.57;;;2.15;;
52043;SDS011;38053;53.100;6.078;2023-01-19T15:04:26;11.65;;;2.30;;
52043;SDS011;38053;53.100;6.078;2023-01-19T15:06:52;11.63;;;2.28;;
52043;SDS011;38053;53.100;6.078;2023-01-19T15:09:19;9.25;;;2.08;;
52043;SDS011;38053;53.100;6.078;2023-01-19T15:11:46;13.15;;;2.10;;
52043;SDS011;38053;53.100;6.078;2023-01-19T15:14:14;7.95;;;2.25;;
52043;SDS011;38053;53.100;6.078;2023-01-19T15:16:41;9.88;;;3.53;;
52043;SDS011;38053;53.100;6.078;2023-01-19T15:19:09;8.00;;;1.73;;
52043;SDS011;38053;53.100;6.078;2023-01-19T15:21:39;8.68;;;1.55;;
52043;SDS011;38053;53.100;6.078;2023-01-19T15:24:10;15.77;;;2.10;;
52043;SDS011;38053;53.100;6.078;2023-01-19T15:26:37;9.60;;;1.90;;
52043;SDS011;38053;53.100;6.078;2023-01-19T15:29:09;7.97;;;2.75;;
52043;SDS011;38053;53.100;6.078;2023-01-19T15:31:40;7.80;;;1.92;;
52043;SDS011;38053;53.100;6.078;2023-01-19T15:34:08;11.02;;;2.97;;
52043;SDS011;38053;53.100;6.078;2023-01-19T15:36:36;14.13;;;3.63;;
52043;SDS011;38053;53.100;6.078;2023-01-19T15:39:02;15.27;;;3.35;;
52043;SDS011;38053;53.100;6.078;2023-01-19T15:41:27;14.68;;;3.30;;
52043;SDS011;38053;53.100;6.078;2023-01-19T15:43:54;6.30;;;2.83;;
52043;SDS011;38053;53.100;6.078;2023-01-19T15:46:20;15.88;;;2.08;;
52043;SDS011;38053;53.100;6.078;2023-01-19T15:48:48;7.88;;;1.75;;
52043;SDS011;38053;53.100;6.078;2023-01-19T15:51:18;14.32;;;3.28;;
52043;SDS011;38053;53.100;6.078;2023-01-19T15:53:46;11.73;;;3.50;;
52043;SDS011;38053;53.100;6.078;2023-01-19T15:56:16;13.15;;;3.90;;
52043;SDS011;38053;53.100;6.078;2023-01-19T15:58:44;15.32;;;2.97;;
52043;SDS011;38053;53.100;6.078;2023-01-19T16:01:14;14.45;;;2.97;;
52043;SDS011;38053;53.100;6.078;2023-01-19T16:03:41;16.90;;;4.00;;
52043;SDS011;38053;53.100;6.078;2023-01-19T16:06:07;15.40;;;5.10;;
52043;SDS011;38053;53.100;6.078;2023-01-19T16:08:34;16.05;;;4.13;;
52043;SDS011;38053;53.100;6.078;2023-01-19T16:11:06;17.52;;;5.10;;
52043;SDS011;38053;53.100;6.078;2023-01-19T16:13:34;25.38;;;9.80;;
52043;SDS011;38053;53.100;6.078;2023-01-19T16:16:03;23.48;;;11.45;;
52043;SDS011;38053;53.100;6.078;2023-01-19T16:18:36;11.88;;;5.65;;
52043;SDS011;38053;53.100;6.078;2023-01-19T16:21:01;15.45;;;5.10;;
52043;SDS011;38053;53.100;6.078;2023-01-19T16:23:27;12.77;;;3.55;;
52043;SDS011;38053;53.100;6.078;2023-01-19T16:25:54;8.60;;;3.30;;
52043;SDS011;38053;53.100;6.078;2023-01-19T16:28:25;14.73;;;4.43;;
52043;SDS011;38053;53.100;6.078;2023-01-19T16:30:51;8.65;;;3.17;;
52043;SDS011;38053;53.100;6.078;2023-01-19T16:33:17;12.18;;;3.00;;
52043;SDS011;38053;53.100;6.078;2023-01-19T16:35:43;20.42;;;6.15;;
52043;SDS011;38053;53.100;6.078;2023-01-19T16:38:09;12.15;;;2.78;;